createdAt,value
2022-09-28T00:00:42.055Z,6.93
2022-09-28T00:03:09.380Z,6.07
2022-09-28T00:05:35.866Z,5.72
2022-09-28T00:08:02.367Z,6.63
2022-09-28T00:10:28.890Z,6.43
2022-09-28T00:12:55.521Z,6.18
2022-09-28T00:15:22.492Z,6.60
2022-09-28T00:17:48.922Z,5.88
2022-09-28T00:20:17.256Z,5.22
2022-09-28T00:22:43.726Z,6.07
2022-09-28T00:25:10.377Z,5.65
2022-09-28T00:27:36.874Z,6.28
2022-09-28T00:30:04.340Z,5.75
2022-09-28T00:32:30.767Z,5.65
2022-09-28T00:34:57.189Z,5.50
2022-09-28T00:37:23.702Z,5.85
2022-09-28T00:39:50.278Z,5.82
2022-09-28T00:42:26.967Z,5.40
2022-09-28T00:44:54.763Z,6.72
2022-09-28T00:47:32.613Z,6.47
2022-09-28T00:50:05.409Z,6.28
2022-09-28T00:52:38.666Z,6.45
2022-09-28T00:55:09.486Z,5.35
2022-09-28T00:57:38.261Z,5.97
2022-09-28T01:00:06.131Z,6.73
2022-09-28T01:02:32.737Z,6.00
2022-09-28T01:04:59.610Z,5.70
2022-09-28T01:07:26.548Z,6.40
2022-09-28T01:09:54.142Z,6.72
2022-09-28T01:12:20.551Z,5.80
2022-09-28T01:14:47.749Z,6.57
2022-09-28T01:17:17.006Z,6.22
2022-09-28T01:19:55.484Z,6.53
2022-09-28T01:22:53.823Z,5.72
2022-09-28T01:25:41.099Z,6.53
2022-09-28T01:28:19.177Z,5.60
2022-09-28T01:31:09.538Z,6.90
2022-09-28T01:33:44.215Z,7.00
2022-09-28T01:36:28.098Z,6.28
2022-09-28T01:39:02.944Z,7.00
2022-09-28T01:41:31.947Z,7.63
2022-09-28T01:44:07.735Z,6.60
2022-09-28T01:46:44.779Z,7.38
2022-09-28T01:49:18.466Z,6.57
2022-09-28T01:51:52.718Z,7.43
2022-09-28T01:54:26.875Z,7.38
2022-09-28T01:57:25.485Z,6.10
2022-09-28T02:00:07.835Z,6.10
2022-09-28T02:02:42.393Z,6.88
2022-09-28T02:05:24.232Z,6.43
2022-09-28T02:07:59.701Z,7.43
2022-09-28T02:10:35.587Z,6.97
2022-09-28T02:13:08.495Z,6.63
2022-09-28T02:15:49.066Z,6.85
2022-09-28T02:18:15.581Z,6.27
2022-09-28T02:20:47.190Z,7.30
2022-09-28T02:23:15.274Z,7.45
2022-09-28T02:25:50.295Z,7.07
2022-09-28T02:28:16.740Z,7.45
2022-09-28T02:30:44.769Z,7.27
2022-09-28T02:33:26.778Z,7.28
2022-09-28T02:35:53.208Z,7.40
2022-09-28T02:38:19.636Z,7.55
2022-09-28T02:40:57.640Z,8.68
2022-09-28T02:43:33.226Z,8.07
2022-09-28T02:46:28.203Z,7.53
2022-09-28T02:49:21.505Z,8.38
2022-09-28T02:52:25.805Z,7.63
2022-09-28T02:55:19.963Z,7.97
2022-09-28T02:57:49.408Z,7.40
2022-09-28T03:00:20.036Z,8.98
2022-09-28T03:02:52.232Z,7.68
2022-09-28T03:05:22.774Z,7.47
2022-09-28T03:08:11.659Z,7.05
2022-09-28T03:10:44.044Z,7.53
2022-09-28T03:13:13.568Z,6.88
2022-09-28T03:15:45.254Z,7.53
2022-09-28T03:18:14.401Z,7.53
2022-09-28T03:20:40.809Z,7.57
2022-09-28T03:23:23.694Z,7.23
2022-09-28T03:25:50.999Z,7.38
2022-09-28T03:28:17.468Z,7.70
2022-09-28T03:30:43.951Z,8.20
2022-09-28T03:33:10.443Z,8.32
2022-09-28T03:35:36.851Z,7.47
2022-09-28T03:38:03.405Z,7.00
2022-09-28T03:40:29.969Z,7.82
2022-09-28T03:42:56.490Z,7.28
2022-09-28T03:45:22.930Z,7.03
2022-09-28T03:47:49.402Z,6.83
2022-09-28T03:50:16.050Z,7.72
2022-09-28T03:52:42.562Z,6.85
2022-09-28T03:55:09.742Z,6.90
2022-09-28T03:57:36.218Z,6.00
2022-09-28T04:00:04.930Z,5.90
2022-09-28T04:02:31.472Z,6.65
2022-09-28T04:04:57.942Z,5.78
2022-09-28T04:07:26.966Z,5.78
2022-09-28T04:09:56.699Z,6.05
2022-09-28T04:12:23.098Z,6.27
2022-09-28T04:14:49.546Z,6.63
2022-09-28T04:17:15.930Z,6.78
2022-09-28T04:19:42.313Z,6.72
2022-09-28T04:22:09.046Z,6.55
2022-09-28T04:24:35.485Z,6.33
2022-09-28T04:27:20.281Z,6.22
2022-09-28T04:29:46.675Z,7.60
2022-09-28T04:32:13.187Z,5.80
2022-09-28T04:34:43.736Z,4.88
2022-09-28T04:37:10.651Z,4.60
2022-09-28T04:39:37.126Z,4.15
2022-09-28T04:42:03.679Z,5.20
2022-09-28T04:44:30.069Z,5.40
2022-09-28T04:46:56.529Z,5.55
2022-09-28T04:49:24.683Z,5.40
2022-09-28T04:51:51.218Z,5.68
2022-09-28T04:54:17.646Z,5.95
2022-09-28T04:56:44.195Z,5.13
2022-09-28T04:59:10.670Z,4.50
2022-09-28T05:01:37.739Z,5.67
2022-09-28T05:04:04.209Z,5.05
2022-09-28T05:06:30.756Z,4.45
2022-09-28T05:08:57.513Z,4.55
2022-09-28T05:11:24.139Z,4.75
2022-09-28T05:13:50.689Z,5.20
2022-09-28T05:16:17.675Z,5.45
2022-09-28T05:18:44.154Z,5.50
2022-09-28T05:21:12.967Z,5.20
2022-09-28T05:23:40.548Z,5.38
2022-09-28T05:26:07.507Z,5.50
2022-09-28T05:28:34.279Z,5.22
2022-09-28T05:31:02.439Z,4.90
2022-09-28T05:33:29.751Z,5.68
2022-09-28T05:36:01.065Z,5.85
2022-09-28T05:38:29.099Z,5.40
2022-09-28T05:40:55.986Z,5.30
2022-09-28T05:43:22.559Z,5.80
2022-09-28T05:45:54.326Z,6.60
2022-09-28T05:48:22.134Z,5.13
2022-09-28T05:50:52.552Z,4.97
2022-09-28T05:53:19.463Z,5.38
2022-09-28T05:55:46.187Z,5.53
2022-09-28T05:58:12.772Z,5.65
2022-09-28T06:00:39.399Z,5.38
2022-09-28T06:03:09.561Z,5.10
2022-09-28T06:05:38.775Z,5.63
2022-09-28T06:08:06.913Z,4.53
2022-09-28T06:10:33.998Z,5.15
2022-09-28T06:13:00.486Z,6.03
2022-09-28T06:15:29.566Z,5.07
2022-09-28T06:18:00.485Z,5.80
2022-09-28T06:20:28.823Z,5.63
2022-09-28T06:22:55.592Z,5.63
2022-09-28T06:25:23.700Z,5.53
2022-09-28T06:27:55.237Z,5.70
2022-09-28T06:30:22.395Z,5.85
2022-09-28T06:32:52.595Z,5.32
2022-09-28T06:35:19.161Z,5.45
2022-09-28T06:37:45.653Z,5.70
2022-09-28T06:40:12.097Z,5.70
2022-09-28T06:42:38.541Z,6.03
2022-09-28T06:45:05.928Z,4.93
2022-09-28T06:47:33.496Z,5.00
2022-09-28T06:50:00.188Z,4.70
2022-09-28T06:52:26.622Z,5.80
2022-09-28T06:54:53.063Z,5.68
2022-09-28T06:57:19.573Z,5.18
2022-09-28T06:59:46.003Z,4.88
2022-09-28T07:02:14.383Z,4.97
2022-09-28T07:04:44.031Z,4.77
2022-09-28T07:07:11.482Z,4.85
2022-09-28T07:09:43.737Z,4.55
2022-09-28T07:12:13.415Z,4.55
2022-09-28T07:14:47.732Z,3.92
2022-09-28T07:17:15.132Z,4.37
2022-09-28T07:19:41.918Z,4.13
2022-09-28T07:22:08.332Z,4.43
2022-09-28T07:24:34.755Z,3.95
2022-09-28T07:27:04.409Z,4.72
2022-09-28T07:29:30.815Z,4.37
2022-09-28T07:31:57.279Z,4.32
2022-09-28T07:34:24.005Z,4.53
2022-09-28T07:36:51.879Z,5.43
2022-09-28T07:39:18.303Z,5.60
2022-09-28T07:41:44.688Z,5.33
2022-09-28T07:44:11.259Z,5.60
2022-09-28T07:46:38.057Z,5.65
2022-09-28T07:49:11.353Z,4.63
2022-09-28T07:51:38.810Z,5.13
2022-09-28T07:54:06.493Z,4.83
2022-09-28T07:56:34.888Z,5.25
2022-09-28T07:59:01.376Z,5.13
2022-09-28T08:01:28.097Z,4.72
2022-09-28T08:03:56.318Z,4.70
2022-09-28T08:06:23.254Z,4.10
2022-09-28T08:08:50.238Z,4.03
2022-09-28T08:11:20.262Z,4.15
2022-09-28T08:13:46.707Z,3.70
2022-09-28T08:16:13.336Z,4.13
2022-09-28T08:18:39.894Z,4.03
2022-09-28T08:21:24.902Z,3.83
2022-09-28T08:23:51.743Z,3.78
2022-09-28T08:26:18.170Z,3.55
2022-09-28T08:28:45.116Z,3.65
2022-09-28T08:31:11.769Z,3.87
2022-09-28T08:33:38.485Z,3.55
2022-09-28T08:36:06.030Z,2.90
2022-09-28T08:38:32.817Z,3.22
2022-09-28T08:41:17.932Z,3.13
2022-09-28T08:44:11.729Z,3.27
2022-09-28T08:46:49.335Z,3.50
2022-09-28T08:49:25.430Z,2.90
2022-09-28T08:52:04.953Z,2.92
2022-09-28T08:54:54.531Z,3.42
2022-09-28T08:57:25.942Z,2.67
2022-09-28T08:59:55.970Z,3.38
2022-09-28T09:02:29.151Z,3.00
2022-09-28T09:04:56.949Z,2.95
2022-09-28T09:07:23.350Z,3.10
2022-09-28T09:10:11.559Z,3.20
2022-09-28T09:13:03.374Z,2.78
2022-09-28T09:16:14.594Z,2.50
2022-09-28T09:19:12.118Z,2.65
2022-09-28T09:22:01.724Z,2.67
2022-09-28T09:24:42.817Z,2.57
2022-09-28T09:27:37.976Z,3.00
2022-09-28T09:30:11.864Z,2.42
2022-09-28T09:32:41.295Z,2.40
2022-09-28T09:35:33.541Z,2.30
2022-09-28T09:38:19.241Z,2.00
2022-09-28T09:41:02.926Z,1.80
2022-09-28T09:43:58.606Z,1.90
2022-09-28T09:46:49.591Z,1.92
2022-09-28T09:49:17.999Z,2.80
2022-09-28T09:51:53.396Z,2.10
2022-09-28T09:54:30.218Z,2.15
2022-09-28T09:57:03.651Z,2.00
2022-09-28T09:59:35.079Z,2.13
2022-09-28T10:02:11.795Z,2.03
2022-09-28T10:04:46.663Z,2.07
2022-09-28T10:07:23.499Z,1.92
2022-09-28T10:09:52.625Z,1.98
2022-09-28T10:12:21.341Z,1.83
2022-09-28T10:14:47.823Z,1.55
2022-09-28T10:17:20.054Z,1.70
2022-09-28T10:19:46.717Z,1.40
2022-09-28T10:22:20.985Z,1.67
2022-09-28T10:24:51.005Z,1.80
2022-09-28T10:27:21.259Z,1.65
2022-09-28T10:29:57.896Z,1.80
2022-09-28T10:32:26.772Z,1.98
2022-09-28T10:35:10.875Z,1.73
2022-09-28T10:37:49.274Z,1.48
2022-09-28T10:40:30.354Z,1.60
2022-09-28T10:43:01.728Z,1.60
2022-09-28T10:45:35.774Z,1.63
2022-09-28T10:48:06.222Z,1.40
2022-09-28T10:50:32.653Z,2.00
2022-09-28T10:53:19.842Z,1.67
2022-09-28T10:56:08.650Z,1.87
2022-09-28T10:58:40.625Z,2.30
2022-09-28T11:01:12.118Z,1.83
2022-09-28T11:03:49.879Z,1.63
2022-09-28T11:06:24.073Z,1.73
2022-09-28T11:08:50.612Z,1.43
2022-09-28T11:11:20.009Z,1.50
2022-09-28T11:13:55.956Z,1.60
2022-09-28T11:16:30.725Z,2.00
2022-09-28T11:19:02.960Z,1.42
2022-09-28T11:21:34.509Z,1.50
2022-09-28T11:24:24.349Z,1.50
2022-09-28T11:26:56.340Z,1.55
2022-09-28T11:29:41.873Z,1.58
2022-09-28T11:32:13.687Z,1.75
2022-09-28T11:34:59.154Z,1.50
2022-09-28T11:37:41.401Z,1.83
2022-09-28T11:40:10.860Z,1.60
2022-09-28T11:42:52.454Z,1.70
2022-09-28T11:45:47.260Z,1.80
2022-09-28T11:48:22.499Z,1.40
2022-09-28T11:50:56.177Z,2.05
2022-09-28T11:53:36.762Z,1.50
2022-09-28T11:56:36.012Z,1.40
2022-09-28T11:59:14.298Z,1.60
2022-09-28T12:01:47.211Z,1.53
2022-09-28T12:04:24.262Z,2.10
2022-09-28T12:06:58.240Z,1.40
2022-09-28T12:09:35.845Z,1.50
2022-09-28T12:12:06.094Z,1.50
2022-09-28T12:14:38.298Z,1.80
2022-09-28T12:17:26.644Z,1.25
2022-09-28T12:20:00.682Z,1.40
2022-09-28T12:22:40.498Z,1.50
2022-09-28T12:25:16.130Z,1.70
2022-09-28T12:27:50.525Z,1.40
2022-09-28T12:30:25.707Z,1.73
2022-09-28T12:33:05.526Z,2.08
2022-09-28T12:36:02.230Z,1.80
2022-09-28T12:38:37.742Z,2.00
2022-09-28T12:41:23.336Z,2.00
2022-09-28T12:44:13.356Z,2.30
2022-09-28T12:47:09.737Z,2.22
2022-09-28T12:50:36.620Z,2.28
2022-09-28T12:52:50.684Z,2.28
2022-09-28T12:55:54.179Z,2.10
2022-09-28T12:58:29.420Z,2.30
2022-09-28T13:01:20.179Z,2.25
2022-09-28T13:04:13.336Z,2.60
2022-09-28T13:07:06.865Z,2.22
2022-09-28T13:10:02.339Z,2.40
2022-09-28T13:12:59.705Z,2.10
2022-09-28T13:15:42.451Z,1.80
2022-09-28T13:18:34.749Z,1.80
2022-09-28T13:21:09.703Z,1.92
2022-09-28T13:23:42.050Z,2.27
2022-09-28T13:26:12.058Z,1.90
2022-09-28T13:28:39.701Z,2.30
2022-09-28T13:31:07.393Z,2.20
2022-09-28T13:33:41.005Z,2.28
2022-09-28T13:36:28.729Z,2.30
2022-09-28T13:38:59.405Z,2.60
2022-09-28T13:41:40.389Z,3.25
2022-09-28T13:44:12.869Z,3.20
2022-09-28T13:47:20.473Z,2.88
2022-09-28T13:50:17.798Z,2.43
2022-09-28T13:52:50.267Z,3.08
2022-09-28T13:55:32.888Z,2.95
2022-09-28T13:58:14.549Z,2.60
2022-09-28T14:00:51.547Z,3.03
2022-09-28T14:03:42.945Z,2.60
2022-09-28T14:06:23.548Z,3.20
2022-09-28T14:08:59.116Z,2.92
2022-09-28T14:11:42.506Z,2.80
2022-09-28T14:14:11.308Z,3.22
2022-09-28T14:16:39.462Z,3.27
2022-09-28T14:19:12.218Z,3.67
2022-09-28T14:21:54.435Z,3.70
2022-09-28T14:24:32.675Z,4.13
2022-09-28T14:27:25.563Z,4.63
2022-09-28T14:30:06.434Z,3.60
2022-09-28T14:32:36.956Z,3.42
2022-09-28T14:35:18.632Z,3.03
2022-09-28T17:55:13.982Z,6.25
2022-09-28T17:57:40.826Z,7.10
2022-09-28T18:00:08.030Z,4.63
2022-09-28T18:02:34.523Z,4.50
2022-09-28T18:05:01.005Z,4.32
2022-09-28T18:07:30.943Z,4.18
2022-09-28T18:09:58.182Z,4.88
2022-09-28T18:12:25.022Z,4.32
2022-09-28T18:14:52.096Z,4.17
2022-09-28T18:17:18.563Z,4.53
2022-09-28T18:19:45.085Z,3.92
2022-09-28T18:22:11.486Z,3.95
2022-09-28T18:24:37.926Z,4.43
2022-09-28T18:27:04.414Z,6.07
2022-09-28T18:29:33.332Z,6.60
2022-09-28T18:32:00.440Z,6.47
2022-09-28T18:34:26.882Z,7.00
2022-09-28T18:36:53.423Z,11.38
2022-09-28T18:39:20.018Z,12.43
2022-09-28T18:41:46.650Z,13.50
2022-09-28T18:44:13.161Z,12.98
2022-09-28T18:46:42.581Z,10.27
2022-09-28T18:49:09.215Z,14.48
2022-09-28T18:51:35.740Z,11.33
2022-09-28T18:54:07.052Z,9.77
2022-09-28T18:56:36.952Z,9.73
2022-09-28T18:59:11.974Z,8.85
2022-09-28T19:01:38.930Z,8.07
2022-09-28T19:04:07.269Z,15.93
2022-09-28T19:06:34.475Z,15.70
2022-09-28T19:09:01.085Z,17.38
2022-09-28T19:11:28.593Z,22.17
2022-09-28T19:13:55.850Z,22.08
2022-09-28T19:16:25.197Z,16.40
2022-09-28T19:18:53.386Z,10.40
2022-09-28T19:21:20.178Z,9.07
2022-09-28T19:23:49.796Z,9.43
2022-09-28T19:26:20.729Z,8.80
2022-09-28T19:28:48.567Z,9.30
2022-09-28T19:31:15.125Z,8.38
2022-09-28T19:33:41.740Z,7.70
2022-09-28T19:36:10.690Z,7.93
2022-09-28T19:38:39.208Z,8.30
2022-09-28T19:41:11.026Z,8.80
2022-09-28T19:43:38.282Z,9.38
2022-09-28T19:46:06.205Z,9.52
2022-09-28T19:48:34.384Z,10.45
2022-09-28T19:51:06.158Z,14.48
2022-09-28T19:53:38.003Z,14.37
2022-09-28T19:56:05.654Z,12.80
2022-09-28T19:58:35.626Z,11.25
2022-09-28T20:01:06.906Z,9.38
2022-09-28T20:03:34.259Z,10.48
2022-09-28T20:06:01.791Z,10.20
2022-09-28T20:08:30.108Z,10.57
2022-09-28T20:10:59.566Z,9.40
2022-09-28T20:13:31.711Z,9.30
2022-09-28T20:16:12.650Z,10.38
2022-09-28T20:18:43.699Z,9.67
2022-09-28T20:21:18.030Z,9.02
2022-09-28T20:23:45.931Z,9.98
2022-09-28T20:26:13.188Z,10.02
2022-09-28T20:28:40.455Z,11.00
2022-09-28T20:31:20.304Z,9.63
2022-09-28T20:33:47.568Z,9.68
2022-09-28T20:36:21.539Z,9.32
2022-09-28T20:38:54.762Z,9.30
2022-09-28T20:41:23.223Z,9.20
2022-09-28T20:43:55.743Z,9.80
2022-09-28T20:46:23.449Z,9.48
2022-09-28T20:48:50.695Z,10.05
2022-09-28T20:51:19.938Z,11.32
2022-09-28T20:53:52.058Z,29.30
2022-09-28T20:56:21.350Z,53.93
2022-09-28T20:58:50.233Z,55.65
2022-09-28T21:01:28.594Z,66.03
2022-09-28T21:04:00.082Z,49.65
2022-09-28T21:06:29.081Z,30.20
2022-09-28T21:08:55.549Z,19.17
2022-09-28T21:11:23.890Z,13.82
2022-09-28T21:13:55.116Z,12.90
2022-09-28T21:16:21.581Z,11.50
2022-09-28T21:18:48.047Z,11.00
2022-09-28T21:21:17.096Z,10.27
2022-09-28T21:23:46.813Z,10.50
2022-09-28T21:26:25.364Z,11.13
2022-09-28T21:28:56.088Z,10.50
2022-09-28T21:31:28.795Z,11.07
2022-09-28T21:33:56.111Z,11.73
2022-09-28T21:36:22.515Z,11.57
2022-09-28T21:38:49.368Z,11.18
2022-09-28T21:41:15.930Z,10.75
2022-09-28T21:43:42.372Z,11.05
2022-09-28T21:46:10.235Z,11.53
2022-09-28T21:48:36.690Z,11.45
2022-09-28T21:51:09.149Z,10.77
2022-09-28T21:53:37.378Z,11.82
2022-09-28T21:56:06.197Z,10.35
2022-09-28T21:58:34.027Z,12.13
2022-09-28T22:01:15.411Z,11.32
2022-09-28T22:03:43.959Z,9.30
2022-09-28T22:06:11.314Z,11.18
2022-09-28T22:08:38.655Z,11.35
2022-09-28T22:11:14.029Z,11.23
2022-09-28T22:13:48.278Z,11.20
2022-09-28T22:16:17.388Z,11.40
2022-09-28T22:18:44.422Z,9.95
2022-09-28T22:21:14.709Z,8.40
2022-09-28T22:23:41.150Z,8.80
2022-09-28T22:26:11.346Z,9.13
2022-09-28T22:28:39.613Z,8.77
2022-09-28T22:31:06.344Z,10.55
2022-09-28T22:33:34.051Z,11.82
2022-09-28T22:36:00.582Z,11.10
2022-09-28T22:38:28.078Z,10.32
2022-09-28T22:40:55.952Z,9.90
2022-09-28T22:43:24.038Z,9.93
2022-09-28T22:45:59.987Z,10.05
2022-09-28T22:48:26.550Z,9.13
2022-09-28T22:50:52.992Z,10.02
2022-09-28T22:53:19.457Z,9.85
2022-09-28T22:55:45.900Z,10.35
2022-09-28T22:58:12.925Z,10.05
2022-09-28T23:00:39.869Z,8.93
2022-09-28T23:03:06.374Z,9.77
2022-09-28T23:05:32.874Z,9.93
2022-09-28T23:07:59.340Z,9.68
2022-09-28T23:10:25.818Z,9.85
2022-09-28T23:12:56.940Z,10.53
2022-09-28T23:15:23.378Z,9.90
2022-09-28T23:17:53.000Z,9.32
2022-09-28T23:20:20.769Z,10.43
2022-09-28T23:22:50.544Z,9.60
2022-09-28T23:25:18.334Z,9.43
2022-09-28T23:27:48.926Z,9.13
2022-09-28T23:30:17.079Z,8.60
2022-09-28T23:32:43.868Z,10.25
2022-09-28T23:35:10.959Z,9.15
2022-09-28T23:37:38.113Z,8.63
2022-09-28T23:40:06.034Z,9.48
2022-09-28T23:42:33.028Z,8.93
2022-09-28T23:44:59.472Z,8.82
2022-09-28T23:47:25.975Z,9.90
2022-09-28T23:49:52.384Z,8.80
2022-09-28T23:52:18.839Z,9.40
2022-09-28T23:54:45.320Z,9.23
2022-09-28T23:57:11.797Z,9.70
2022-09-28T23:59:38.645Z,8.95
